createdAt,value
2023-10-23T00:00:14.622Z,100898.84
2023-10-23T00:03:22.927Z,100898.53
2023-10-23T00:05:56.416Z,100896.50
2023-10-23T00:08:28.844Z,100895.13
2023-10-23T00:11:01.459Z,100895.97
2023-10-23T00:13:36.151Z,100896.69
2023-10-23T00:16:12.553Z,100899.91
2023-10-23T00:18:45.711Z,100897.38
2023-10-23T00:21:20.581Z,100908.16
2023-10-23T00:23:52.934Z,100909.50
2023-10-23T00:26:26.314Z,100905.47
2023-10-23T00:28:58.715Z,100909.03
2023-10-23T00:31:35.297Z,100908.69
2023-10-23T00:34:07.661Z,100913.47
2023-10-23T00:36:40.859Z,100910.25
2023-10-23T00:39:12.783Z,100908.44
2023-10-23T00:41:46.030Z,100907.75
2023-10-23T00:44:20.694Z,100911.13
2023-10-23T00:47:01.158Z,100904.59
2023-10-23T00:50:10.536Z,100912.28
2023-10-23T00:52:49.350Z,100908.75
2023-10-23T00:55:25.910Z,100906.09
2023-10-23T00:58:16.288Z,100905.22
2023-10-23T01:00:52.466Z,100907.94
2023-10-23T01:03:33.377Z,100908.97
2023-10-23T01:06:14.880Z,100912.50
2023-10-23T01:08:50.500Z,100921.91
2023-10-23T01:11:22.870Z,100914.19
2023-10-23T01:13:55.156Z,100913.16
2023-10-23T01:16:28.168Z,100919.56
2023-10-23T01:19:03.474Z,100916.84
2023-10-23T01:21:35.544Z,100920.59
2023-10-23T01:24:12.210Z,100915.69
2023-10-23T01:26:52.614Z,100915.84
2023-10-23T01:29:24.750Z,100916.69
2023-10-23T01:31:56.933Z,100922.75
2023-10-23T01:34:29.244Z,100926.44
2023-10-23T01:37:01.827Z,100926.25
2023-10-23T01:39:34.153Z,100924.75
2023-10-23T01:42:09.852Z,100937.03
2023-10-23T01:44:42.537Z,100938.53
2023-10-23T01:47:16.085Z,100932.47
2023-10-23T01:49:49.262Z,100933.31
2023-10-23T01:52:21.884Z,100934.13
2023-10-23T01:54:55.537Z,100924.41
2023-10-23T01:57:31.436Z,100933.13
2023-10-23T02:00:07.400Z,100925.41
2023-10-23T02:02:39.667Z,100928.59
2023-10-23T02:05:12.901Z,100928.41
2023-10-23T02:07:44.762Z,100930.28
2023-10-23T02:10:17.044Z,100929.41
2023-10-23T02:12:52.881Z,100932.09
2023-10-23T02:15:25.245Z,100930.28
2023-10-23T02:17:57.543Z,100940.00
2023-10-23T02:20:30.914Z,100930.78
2023-10-23T02:23:03.368Z,100933.81
2023-10-23T02:25:35.763Z,100933.81
2023-10-23T02:28:10.506Z,100932.81
2023-10-23T02:30:43.423Z,100941.06
2023-10-23T02:33:15.786Z,100940.56
2023-10-23T02:35:48.319Z,100946.94
2023-10-23T02:38:20.661Z,100947.47
2023-10-23T02:40:56.168Z,100963.44
2023-10-23T02:43:31.527Z,100959.75
2023-10-23T02:46:06.119Z,100967.97
2023-10-23T02:48:38.462Z,100973.22
2023-10-23T02:51:11.011Z,100973.00
2023-10-23T02:53:43.336Z,100973.69
2023-10-23T02:56:16.950Z,100972.00
2023-10-23T02:58:52.217Z,100972.34
2023-10-23T03:01:26.932Z,100974.50
2023-10-23T03:03:59.494Z,100972.13
2023-10-23T03:06:32.361Z,100978.00
2023-10-23T03:09:06.810Z,100973.13
2023-10-23T03:11:40.947Z,100980.38
2023-10-23T03:14:15.885Z,100987.28
2023-10-23T03:16:48.815Z,100991.97
2023-10-23T03:19:23.992Z,100990.59
2023-10-23T03:21:57.924Z,100993.59
2023-10-23T03:24:30.109Z,100983.34
2023-10-23T03:27:02.282Z,100989.19
2023-10-23T03:29:37.008Z,100991.06
2023-10-23T03:32:10.668Z,100993.59
2023-10-23T03:34:42.567Z,100990.56
2023-10-23T03:37:16.343Z,100995.59
2023-10-23T03:39:48.790Z,100993.38
2023-10-23T03:42:22.242Z,100992.53
2023-10-23T03:45:04.005Z,100986.34
2023-10-23T03:47:41.732Z,100983.59
2023-10-23T03:50:14.289Z,100981.22
2023-10-23T03:52:46.598Z,100988.13
2023-10-23T03:55:20.681Z,100996.16
2023-10-23T03:57:54.051Z,100987.25
2023-10-23T04:00:29.064Z,100991.41
2023-10-23T04:03:01.561Z,100998.16
2023-10-23T04:05:35.516Z,100995.13
2023-10-23T04:08:08.116Z,100999.34
2023-10-23T04:10:40.119Z,101002.53
2023-10-23T04:13:12.296Z,101004.75
2023-10-23T04:15:56.894Z,101009.22
2023-10-23T04:18:29.223Z,101010.44
2023-10-23T04:21:08.846Z,101010.28
2023-10-23T04:23:42.655Z,101021.38
2023-10-23T04:26:15.246Z,101013.81
2023-10-23T04:28:47.671Z,101016.19
2023-10-23T04:31:22.380Z,101014.28
2023-10-23T04:33:54.739Z,101023.00
2023-10-23T04:36:31.107Z,101028.91
2023-10-23T04:39:04.173Z,101039.50
2023-10-23T04:41:37.480Z,101027.63
2023-10-23T04:44:14.323Z,101027.78
2023-10-23T04:46:56.063Z,101028.66
2023-10-23T04:49:28.557Z,101030.00
2023-10-23T04:52:04.347Z,101037.38
2023-10-23T04:54:41.492Z,101030.16
2023-10-23T04:57:18.057Z,101033.22
2023-10-23T04:59:50.359Z,101038.44
2023-10-23T05:02:25.418Z,101042.44
2023-10-23T05:04:57.684Z,101045.97
2023-10-23T05:07:33.160Z,101045.81
2023-10-23T05:10:07.113Z,101044.97
2023-10-23T05:12:40.428Z,101047.81
2023-10-23T05:15:26.379Z,101042.69
2023-10-23T05:18:03.531Z,101046.91
2023-10-23T05:20:45.146Z,101045.25
2023-10-23T05:23:26.747Z,101054.19
2023-10-23T05:26:03.082Z,101055.53
2023-10-23T05:28:38.447Z,101053.38
2023-10-23T05:31:12.327Z,101062.41
2023-10-23T05:33:53.472Z,101060.91
2023-10-23T05:36:27.885Z,101062.06
2023-10-23T05:39:08.714Z,101069.13
2023-10-23T05:41:41.712Z,101067.28
2023-10-23T05:44:13.999Z,101071.09
2023-10-23T05:46:47.399Z,101068.88
2023-10-23T05:49:21.912Z,101077.97
2023-10-23T05:51:54.074Z,101086.03
2023-10-23T05:54:32.338Z,101079.94
2023-10-23T05:57:05.232Z,101082.47
2023-10-23T05:59:41.360Z,101089.41
2023-10-23T06:02:15.676Z,101093.06
2023-10-23T06:04:51.787Z,101094.09
2023-10-23T06:07:23.951Z,101091.25
2023-10-23T06:09:58.010Z,101087.63
2023-10-23T06:12:33.107Z,101089.69
2023-10-23T06:15:06.326Z,101088.25
2023-10-23T06:17:46.057Z,101093.91
2023-10-23T06:20:20.735Z,101105.28
2023-10-23T06:23:10.294Z,101112.19
2023-10-23T06:25:42.425Z,101105.81
2023-10-23T06:28:14.682Z,101114.56
2023-10-23T06:30:48.826Z,101118.31
2023-10-23T06:33:22.326Z,101114.97
2023-10-23T06:36:05.138Z,101125.75
2023-10-23T06:38:37.976Z,101122.44
2023-10-23T06:41:10.753Z,101123.22
2023-10-23T06:43:43.249Z,101122.97
2023-10-23T06:46:15.577Z,101129.47
2023-10-23T06:48:48.748Z,101128.13
2023-10-23T06:51:23.345Z,101119.72
2023-10-23T06:53:56.146Z,101121.34
2023-10-23T06:56:35.120Z,101120.47
2023-10-23T06:59:07.451Z,101117.19
2023-10-23T07:01:46.201Z,101116.81
2023-10-23T07:04:25.569Z,101112.47
2023-10-23T07:07:10.907Z,101111.50
2023-10-23T07:09:54.900Z,101114.69
2023-10-23T07:12:26.932Z,101106.19
2023-10-23T07:15:00.190Z,101111.31
2023-10-23T07:17:33.588Z,101112.00
2023-10-23T07:20:08.602Z,101117.72
2023-10-23T07:22:43.163Z,101121.38
2023-10-23T07:25:21.005Z,101121.59
2023-10-23T07:28:02.690Z,101123.97
2023-10-23T07:30:34.918Z,101133.28
2023-10-23T07:33:07.238Z,101133.63
2023-10-23T07:35:52.632Z,101144.75
2023-10-23T07:38:29.299Z,101151.25
2023-10-23T07:41:02.622Z,101141.91
2023-10-23T07:43:50.857Z,101143.13
2023-10-23T07:47:09.867Z,101158.63
2023-10-23T07:49:56.493Z,101158.69
2023-10-23T07:52:42.015Z,101150.84
2023-10-23T07:55:17.554Z,101150.84
2023-10-23T07:57:55.493Z,101149.81
2023-10-23T08:00:30.335Z,101158.09
2023-10-23T08:03:07.323Z,101161.81
2023-10-23T08:06:00.881Z,101163.66
2023-10-23T08:08:45.806Z,101166.00
2023-10-23T08:11:22.767Z,101171.25
2023-10-23T08:13:55.764Z,101169.38
2023-10-23T08:16:41.134Z,101172.41
2023-10-23T08:19:14.540Z,101169.75
2023-10-23T08:21:58.861Z,101175.31
2023-10-23T08:24:50.080Z,101174.97
2023-10-23T08:27:39.801Z,101177.84
2023-10-23T08:30:17.204Z,101176.16
2023-10-23T08:32:53.215Z,101171.44
2023-10-23T08:35:33.887Z,101176.00
2023-10-23T08:38:09.326Z,101180.69
2023-10-23T08:40:47.323Z,101176.84
2023-10-23T08:43:23.841Z,101174.13
2023-10-23T08:45:58.745Z,101181.22
2023-10-23T08:48:33.642Z,101174.78
2023-10-23T08:51:08.661Z,101181.13
2023-10-23T08:57:18.644Z,101183.47
2023-10-23T08:59:58.963Z,101181.78
2023-10-23T09:02:52.060Z,101179.47
2023-10-23T09:05:45.841Z,101182.50
2023-10-23T09:08:29.047Z,101178.56
2023-10-23T09:11:06.323Z,101176.56
2023-10-23T09:13:40.325Z,101174.88
2023-10-23T09:16:18.178Z,101174.31
2023-10-23T09:19:07.308Z,101173.53
2023-10-23T09:21:39.567Z,101173.56
2023-10-23T09:24:15.493Z,101176.03
2023-10-23T09:26:54.162Z,101168.44
2023-10-23T09:29:27.765Z,101166.44
2023-10-23T09:32:04.883Z,101164.72
2023-10-23T09:34:38.244Z,101166.41
2023-10-23T09:37:11.269Z,101170.28
2023-10-23T09:39:49.403Z,101169.31
2023-10-23T09:42:42.243Z,101175.56
2023-10-23T09:45:17.962Z,101170.53
2023-10-23T09:48:02.780Z,101171.19
2023-10-23T09:51:07.404Z,101168.00
2023-10-23T09:54:32.085Z,101170.41
2023-10-23T09:57:35.804Z,101169.69
2023-10-23T10:00:20.963Z,101160.44
2023-10-23T10:03:21.539Z,101158.19
2023-10-23T10:07:00.850Z,101157.13
2023-10-23T10:10:03.229Z,101160.13
2023-10-23T10:13:15.092Z,101160.59
2023-10-23T10:16:09.939Z,101152.00
2023-10-23T10:20:37.967Z,101148.16
2023-10-23T10:23:14.612Z,101157.06
2023-10-23T10:27:02.242Z,101146.47
2023-10-23T10:29:46.524Z,101147.28
2023-10-23T10:32:31.239Z,101153.28
2023-10-23T10:35:45.158Z,101142.53
2023-10-23T10:38:36.647Z,101138.13
2023-10-23T10:41:40.802Z,101144.50
2023-10-23T10:44:24.446Z,101145.81
2023-10-23T10:47:03.263Z,101145.53
2023-10-23T10:49:36.171Z,101143.56
2023-10-23T10:52:59.169Z,101154.53
2023-10-23T10:56:27.689Z,101145.66
2023-10-23T10:59:46.217Z,101130.59
2023-10-23T11:02:36.609Z,101135.84
2023-10-23T11:05:40.257Z,101130.41
2023-10-23T11:08:35.731Z,101126.19
2023-10-23T11:11:14.690Z,101117.66
2023-10-23T11:13:48.448Z,101119.94
2023-10-23T11:16:31.820Z,101118.44
2023-10-23T11:19:09.810Z,101113.09
2023-10-23T11:22:12.479Z,101116.50
2023-10-23T11:24:47.992Z,101116.44
2023-10-23T11:27:25.207Z,101117.88
2023-10-23T11:30:05.252Z,101109.75
2023-10-23T11:32:38.749Z,101115.34
2023-10-23T11:35:13.061Z,101116.16
2023-10-23T11:37:49.489Z,101113.94
2023-10-23T11:40:28.417Z,101121.09
2023-10-23T11:43:17.507Z,101121.28
2023-10-23T11:45:57.516Z,101117.09
2023-10-23T11:48:41.008Z,101116.88
2023-10-23T11:51:45.844Z,101113.66
2023-10-23T11:54:36.411Z,101119.69
2023-10-23T11:57:11.052Z,101110.47
2023-10-23T11:59:54.749Z,101114.75
2023-10-23T12:02:30.726Z,101112.03
2023-10-23T12:05:08.824Z,101107.13
2023-10-23T12:07:47.057Z,101115.41
2023-10-23T12:10:43.069Z,101115.06
2023-10-23T12:13:15.705Z,101107.53
2023-10-23T12:15:58.432Z,101122.25
2023-10-23T12:18:31.687Z,101125.50
2023-10-23T12:21:06.690Z,101122.19
2023-10-23T12:23:40.573Z,101117.63
2023-10-23T12:26:13.528Z,101115.44
2023-10-23T12:28:46.689Z,101108.06
2023-10-23T12:32:01.588Z,101111.94
2023-10-23T12:34:46.414Z,101105.53
2023-10-23T12:37:43.449Z,101101.03
2023-10-23T12:40:50.543Z,101102.31
2023-10-23T12:43:34.092Z,101097.44
2023-10-23T12:46:22.040Z,101101.94
2023-10-23T12:49:50.372Z,101090.91
2023-10-23T12:52:40.717Z,101096.53
2023-10-23T12:55:23.041Z,101088.44
2023-10-23T12:58:09.125Z,101092.78
2023-10-23T13:01:03.923Z,101089.28
2023-10-23T13:03:48.321Z,101087.06
2023-10-23T13:06:46.139Z,101078.03
2023-10-23T13:09:20.781Z,101074.22
2023-10-23T13:12:41.213Z,101083.09
2023-10-23T13:15:22.302Z,101077.91
2023-10-23T13:17:57.797Z,101079.53
2023-10-23T13:21:27.307Z,101078.56
2023-10-23T13:23:25.060Z,101070.22
2023-10-23T13:26:10.123Z,101069.81
2023-10-23T13:28:49.435Z,101067.06
2023-10-23T13:31:23.608Z,101069.13
2023-10-23T13:33:56.680Z,101065.16
2023-10-23T13:36:28.768Z,101062.72
2023-10-23T13:39:07.674Z,101062.94
2023-10-23T13:41:39.894Z,101066.06
2023-10-23T13:44:12.659Z,101074.03
2023-10-23T13:46:45.406Z,101063.88
2023-10-23T13:49:39.643Z,101068.78
2023-10-23T13:52:27.533Z,101057.84
2023-10-23T13:55:17.071Z,101061.25
2023-10-23T13:57:49.656Z,101051.63
2023-10-23T14:00:23.550Z,101052.59
2023-10-23T14:03:05.784Z,101054.22
2023-10-23T14:05:52.649Z,101051.22
2023-10-23T14:08:31.976Z,101049.09
2023-10-23T14:11:59.525Z,101053.00
2023-10-23T14:14:25.052Z,101053.34
2023-10-23T14:16:58.507Z,101053.81
2023-10-23T14:19:45.546Z,101053.47
2023-10-23T14:22:32.688Z,101048.56
2023-10-23T14:25:11.381Z,101042.81
2023-10-23T14:27:46.936Z,101045.53
2023-10-23T14:30:21.820Z,101047.81
2023-10-23T14:32:55.651Z,101039.00
2023-10-23T14:35:48.056Z,101037.53
2023-10-23T14:38:25.115Z,101042.38
2023-10-23T14:41:21.905Z,101039.78
2023-10-23T14:43:57.335Z,101034.38
2023-10-23T14:46:29.931Z,101029.28
2023-10-23T14:49:04.828Z,101027.66
2023-10-23T14:51:43.443Z,101029.59
2023-10-23T14:54:22.529Z,101015.38
2023-10-23T14:57:04.401Z,101026.41
2023-10-23T22:07:51.809Z,100802.16
2023-10-23T22:10:29.021Z,100792.09
2023-10-23T22:13:02.834Z,100802.16
2023-10-23T22:15:36.126Z,100802.34
2023-10-23T22:18:10.763Z,100800.16
2023-10-23T22:20:43.667Z,100806.19
2023-10-23T22:23:19.732Z,100798.50
2023-10-23T22:25:57.052Z,100803.91
2023-10-23T22:28:32.145Z,100803.34
2023-10-23T22:31:06.321Z,100798.94
2023-10-23T22:33:40.138Z,100802.69
2023-10-23T22:36:13.751Z,100804.84
2023-10-23T22:38:50.260Z,100807.56
2023-10-23T22:41:24.040Z,100799.47
2023-10-23T22:43:56.297Z,100792.91
2023-10-23T22:46:29.188Z,100788.69
2023-10-23T22:49:01.683Z,100783.47
2023-10-23T22:51:36.979Z,100781.47
2023-10-23T22:54:13.035Z,100784.50
2023-10-23T22:56:46.557Z,100781.47
2023-10-23T22:59:19.578Z,100778.09
2023-10-23T23:01:53.082Z,100778.91
2023-10-23T23:04:26.807Z,100778.44
2023-10-23T23:07:04.441Z,100766.63
2023-10-23T23:09:41.932Z,100774.88
2023-10-23T23:12:16.541Z,100770.81
2023-10-23T23:14:51.521Z,100773.88
2023-10-23T23:20:29.549Z,100775.06
2023-10-23T23:23:04.096Z,100774.53
2023-10-23T23:25:39.419Z,100776.41
2023-10-23T23:28:12.622Z,100772.56
2023-10-23T23:30:46.006Z,100768.50
2023-10-23T23:33:19.457Z,100769.69
2023-10-23T23:35:54.501Z,100762.44
2023-10-23T23:38:27.974Z,100761.41
2023-10-23T23:41:02.553Z,100749.13
2023-10-23T23:43:37.074Z,100762.91
2023-10-23T23:46:09.597Z,100751.50
2023-10-23T23:48:41.808Z,100750.97
2023-10-23T23:51:15.868Z,100743.94
2023-10-23T23:53:48.246Z,100738.38
2023-10-23T23:56:22.746Z,100738.03
2023-10-23T23:58:54.823Z,100730.63
